Kaleen Mc Allister — WDB3847 — position and weather

sailwx.info

Track history (hours):
 
Tides and Currents Weather Stations Pressure Air Temp Water Temp Dewpoint Dewpoint Depression Visibility Wind Speed Wind Dir Waves Ship Positions

Kaleen Mc Allister

Owner: MC ALLISTER TOWING & TRANSPORTATION INC, NEW YORK, NY. More information available from US FCC via Universal Licensing System and Coast Guard Vessel Documentation Center.

Last reported at 2017-Mar-25 14:34 UTC. Time now 2017-Mar-25 15:30 UTC.
Position N 39°16' W 076°35'.

Length 31 m; draft 4 m.

Type: Tug. MMSI: 366891960.

Date/timePositionNaut miles runAvg speedWind from/ knotsBaromVisibWave heightAir tempDewpointWater temp
2017-Mar-25 14:34N 39°16' W 076°35'0 0.1
2017-Mar-25 13:33N 39°16' W 076°35'0 0.0
2017-Mar-25 12:34N 39°16' W 076°35'0 0.0
2017-Mar-25 11:34N 39°16' W 076°35'0 0.0
2017-Mar-25 10:34N 39°16' W 076°35'0 0.0
2017-Mar-25 09:34N 39°16' W 076°35'0 0.0
2017-Mar-25 08:34N 39°16' W 076°35'0 0.0
2017-Mar-25 07:33N 39°16' W 076°35'0 0.0
2017-Mar-25 06:33N 39°16' W 076°35'0 0.0
2017-Mar-25 05:33N 39°16' W 076°35'0 0.0
2017-Mar-25 04:33N 39°16' W 076°35'1 0.8
2017-Mar-25 03:33N 39°15' W 076°34'3 2.7
2017-Mar-25 02:33N 39°13' W 076°35'2 1.9
2017-Mar-25 01:31N 39°14' W 076°33'2 2.1
2017-Mar-25 00:33N 39°16' W 076°35'0 0.0
2017-Mar-24 23:33N 39°16' W 076°35'0 0.0
2017-Mar-24 22:33N 39°16' W 076°35'5 4.8
2017-Mar-24 21:33N 39°13' W 076°30'2 1.5
2017-Mar-24 20:33N 39°12' W 076°29'3 3.5
2017-Mar-24 19:33N 39°14' W 076°33'3 2.6
2017-Mar-24 18:34N 39°16' W 076°35'0 0.0
2017-Mar-24 17:33N 39°16' W 076°35'0 0.0
2017-Mar-24 16:34N 39°16' W 076°35'0 0.0
2017-Mar-24 15:34N 39°16' W 076°35'0 0.0
2017-Mar-24 14:29N 39°16' W 076°35'0 0.0
2017-Mar-24 13:31N 39°16' W 076°35'0 0.0
2017-Mar-24 12:33N 39°16' W 076°35'0 0.0
2017-Mar-24 11:34N 39°16' W 076°35'0 0.0
2017-Mar-24 10:32N 39°16' W 076°35'2 1.3
2017-Mar-24 09:09N 39°15' W 076°33'1 1.5
2017-Mar-24 08:33N 39°15' W 076°35'1 1.1
2017-Mar-24 07:33N 39°16' W 076°35'0 0.0
2017-Mar-24 06:34N 39°16' W 076°35'0 0.0
2017-Mar-24 05:33N 39°16' W 076°35'0 0.0
2017-Mar-24 04:33N 39°16' W 076°35'0 0.1
2017-Mar-24 03:34N 39°16' W 076°35'2 1.5
2017-Mar-24 02:31N 39°15' W 076°34'2 1.6
2017-Mar-24 01:34N 39°16' W 076°35'0 0.1
2017-Mar-24 00:33N 39°16' W 076°35'0 0.0
2017-Mar-23 23:07N 39°16' W 076°35'0 0.0
2017-Mar-23 22:33N 39°16' W 076°35'0 0.0
2017-Mar-23 21:33N 39°16' W 076°35'0 0.0
2017-Mar-23 20:33N 39°16' W 076°35'0 0.0
2017-Mar-23 19:28N 39°16' W 076°35'3 3.5
2017-Mar-23 18:33N 39°13' W 076°35'2 1.9
2017-Mar-23 17:33N 39°14' W 076°33'2 2.0
2017-Mar-23 16:29N 39°16' W 076°35'0 0.0
2017-Mar-23 15:31N 39°16' W 076°35'0 0.0
2017-Mar-23 14:34N 39°16' W 076°35'0 0.0
2017-Mar-23 13:33N 39°16' W 076°35'0 0.0
2017-Mar-23 12:26N 39°16' W 076°35'0 0.0
2017-Mar-23 11:33N 39°16' W 076°35'2 0.5
2017-Mar-23 08:33N 39°15' W 076°34'2 1.5
2017-Mar-23 07:33N 39°16' W 076°35'0 0.0
2017-Mar-23 06:31N 39°16' W 076°35'0 0.0
2017-Mar-23 05:30N 39°16' W 076°35'0 0.0
2017-Mar-23 04:33N 39°16' W 076°35'2 1.5
2017-Mar-23 03:31N 39°15' W 076°33'2 1.7
2017-Mar-23 02:33N 39°16' W 076°35'3 0.3
2017-Mar-22 18:27N 39°14' W 076°34'2 2.3
2017-Mar-22 17:28N 39°15' W 076°32'0 0.1
2017-Mar-22 16:32N 39°15' W 076°32'1 1.2
2017-Mar-22 15:33N 39°14' W 076°33'2 1.5
2017-Mar-22 14:06N 39°16' W 076°35'0 0.0
2017-Mar-22 12:24N 39°16' W 076°35'0 0.0
2017-Mar-22 11:32N 39°16' W 076°35'0 0.0
2017-Mar-22 10:29N 39°16' W 076°35'0 0.0
2017-Mar-22 08:32N 39°16' W 076°35'0 0.0
2017-Mar-22 07:34N 39°16' W 076°35'0 0.0
2017-Mar-22 06:34N 39°16' W 076°35'0 0.0
2017-Mar-22 05:34N 39°16' W 076°35'0 0.0
2017-Mar-22 04:31N 39°16' W 076°35'1 1.0
2017-Mar-22 03:29N 39°15' W 076°35'1 1.1
2017-Mar-22 02:34N 39°16' W 076°35'0 0.1
2017-Mar-22 01:29N 39°16' W 076°35'0 0.0
2017-Mar-22 00:34N 39°16' W 076°35'0 0.3
2017-Mar-21 23:33N 39°16' W 076°35'2 2.1
2017-Mar-21 22:33N 39°15' W 076°32'1 0.9
2017-Mar-21 21:25N 39°15' W 076°34'3 2.9
2017-Mar-21 20:32N 39°13' W 076°32'0 0.0
2017-Mar-21 19:25N 39°13' W 076°32'2 2.1
2017-Mar-21 18:28N 39°13' W 076°35'1 0.7
2017-Mar-21 17:31N 39°13' W 076°34'2 1.7
2017-Mar-21 16:32N 39°15' W 076°34'1 1.4
2017-Mar-21 15:30N 39°16' W 076°35'0 0.0
2017-Mar-21 14:33N 39°16' W 076°35'0 0.0
2017-Mar-21 13:31N 39°16' W 076°35'0 0.0
2017-Mar-21 12:33N 39°16' W 076°35'0 0.0
2017-Mar-21 11:31N 39°16' W 076°35'0 0.0
2017-Mar-21 10:16N 39°16' W 076°35'0 0.0
2017-Mar-21 09:33N 39°16' W 076°35'0 0.0
2017-Mar-21 08:31N 39°16' W 076°35'0 0.0
2017-Mar-21 07:28N 39°16' W 076°35'0 0.0
2017-Mar-21 06:31N 39°16' W 076°35'0 0.0
2017-Mar-21 05:26N 39°16' W 076°35'1 0.8
2017-Mar-21 04:28N 39°15' W 076°35'3 2.9
2017-Mar-21 03:33N 39°15' W 076°31'3 2.9
2017-Mar-21 02:29N 39°16' W 076°35'0 0.0
2017-Mar-21 01:30N 39°16' W 076°35'0 0.0
2017-Mar-21 00:29N 39°16' W 076°35'0 0.0
2017-Mar-20 23:31N 39°16' W 076°35'0 0.0
2017-Mar-20 22:33N 39°16' W 076°35'0 0.0
2017-Mar-20 21:34N 39°16' W 076°35'0 0.0
2017-Mar-20 20:22N 39°16' W 076°35'0 0.0
2017-Mar-20 19:28N 39°16' W 076°35'0 0.0
2017-Mar-20 18:34N 39°16' W 076°35'0 0.0
2017-Mar-20 17:33N 39°16' W 076°35'0 0.0
2017-Mar-20 16:26N 39°16' W 076°35'0 0.0
2017-Mar-20 15:16N 39°16' W 076°35'0 0.0
2017-Mar-20 14:30N 39°16' W 076°35'2 1.4
2017-Mar-20 13:17N 39°15' W 076°33'1 0.9
2017-Mar-20 12:33N 39°15' W 076°34'2 1.6
2017-Mar-20 11:32N 39°15' W 076°32'0 0.0
2017-Mar-20 10:29N 39°15' W 076°32'0 0.0
2017-Mar-20 09:33N 39°15' W 076°32'0 0.4
2017-Mar-20 08:32N 39°15' W 076°33'0 0.1
2017-Mar-20 05:29N 39°15' W 076°32'1 0.6
2017-Mar-20 04:33N 39°15' W 076°32'2 1.7
2017-Mar-20 03:32N 39°15' W 076°34'0 0.1
2017-Mar-20 01:32N 39°15' W 076°35'0 0.5
2017-Mar-20 00:32N 39°15' W 076°34'1 1.2
2017-Mar-19 23:31N 39°14' W 076°33'2 2.3
2017-Mar-19 22:33N 39°16' W 076°35'0 0.0
2017-Mar-19 21:31N 39°16' W 076°35'0 0.0
2017-Mar-19 19:28N 39°16' W 076°35'0 0.0
2017-Mar-19 18:23N 39°16' W 076°35'0 0.0
2017-Mar-19 17:33N 39°16' W 076°35'0 0.0
2017-Mar-19 16:25N 39°16' W 076°35'2 2.3
2017-Mar-19 15:20N 39°14' W 076°33'2 2.9
2017-Mar-19 14:29N 39°16' W 076°35'0 0.0
2017-Mar-19 06:26N 39°16' W 076°35'0 0.0
2017-Mar-19 05:30N 39°16' W 076°35'0 0.0
2017-Mar-19 04:30N 39°16' W 076°35'0 0.0
2017-Mar-19 03:25N 39°16' W 076°35'1 1.0
2017-Mar-19 02:24N 39°15' W 076°35'1 0.3
2017-Mar-18 22:32N 39°16' W 076°35'0 0.0
2017-Mar-18 21:33N 39°16' W 076°35'0 0.0
2017-Mar-18 19:05N 39°16' W 076°35'0 0.0
2017-Mar-18 17:29N 39°16' W 076°35'3 1.3
2017-Mar-18 15:17N 39°13' W 076°34'2 2.3
2017-Mar-18 14:30N 39°15' W 076°33'2 0.9
2017-Mar-18 12:07N 39°16' W 076°35'0 0.0
2017-Mar-18 11:19N 39°16' W 076°35'0 0.0
2017-Mar-18 10:29N 39°16' W 076°35'2 0.8
2017-Mar-18 08:11N 39°15' W 076°34'1 1.5
2017-Mar-18 07:32N 39°14' W 076°33'3 2.7
2017-Mar-18 06:33N 39°16' W 076°35'0 0.0
2017-Mar-18 05:27N 39°16' W 076°35'0 0.0
2017-Mar-18 04:33N 39°16' W 076°35'0 0.0
2017-Mar-18 03:33N 39°16' W 076°35'0 0.0
2017-Mar-18 02:30N 39°16' W 076°35'0 0.0
2017-Mar-18 01:33N 39°16' W 076°35'3 2.3
2017-Mar-18 00:26N 39°15' W 076°32'1 1.3
2017-Mar-17 23:31N 39°13' W 076°32'1 0.6
2017-Mar-17 22:27N 39°13' W 076°32'3 3.0
2017-Mar-17 21:32N 39°15' W 076°34'1 1.0
2017-Mar-17 20:30N 39°16' W 076°35'0 0.0
2017-Mar-17 19:33N 39°16' W 076°35'0 0.0
2017-Mar-17 18:20N 39°16' W 076°35'0 0.0
2017-Mar-17 17:32N 39°16' W 076°35'0 0.0
2017-Mar-17 16:30N 39°16' W 076°35'0 0.0
2017-Mar-17 15:30N 39°16' W 076°35'0 0.0
2017-Mar-17 14:30N 39°16' W 076°35'0 0.0
2017-Mar-17 13:33N 39°16' W 076°35'0 0.0
2017-Mar-17 12:33N 39°16' W 076°35'1 1.1
2017-Mar-17 11:33N 39°15' W 076°35'1 0.6
2017-Mar-17 10:31N 39°15' W 076°34'0 0.3
2017-Mar-17 09:33N 39°15' W 076°34'1 1.1
2017-Mar-17 08:30N 39°16' W 076°35'0 0.0
2017-Mar-17 07:30N 39°16' W 076°35'0 0.0
2017-Mar-17 06:32N 39°16' W 076°35'0 0.2
2017-Mar-17 05:30N 39°16' W 076°35'0 0.2
2017-Mar-17 04:30N 39°16' W 076°35'0 0.0
2017-Mar-17 03:30N 39°16' W 076°35'0 0.3
2017-Mar-17 02:34N 39°16' W 076°35'0 0.3
2017-Mar-17 01:30N 39°16' W 076°35'0 0.0
2017-Mar-17 00:30N 39°16' W 076°35'0 0.0
2017-Mar-16 23:30N 39°16' W 076°35'0 0.0
2017-Mar-16 21:25N 39°16' W 076°35'0 0.0
2017-Mar-16 20:20N 39°16' W 076°35'0 0.0
2017-Mar-16 19:30N 39°16' W 076°35'3 3.3
2017-Mar-16 18:30N 39°13' W 076°35'2 1.9
2017-Mar-16 17:33N 39°14' W 076°33'2 2.1
2017-Mar-16 16:30N 39°16' W 076°35'0 0.0
2017-Mar-16 15:30N 39°16' W 076°35'0 0.0
2017-Mar-16 14:30N 39°16' W 076°35'0 0.0
2017-Mar-16 13:32N 39°16' W 076°35'0 0.0
2017-Mar-16 12:20N 39°16' W 076°35'0 0.0
2017-Mar-16 11:30N 39°16' W 076°35'0 0.0
2017-Mar-16 10:33N 39°16' W 076°35'0 0.0
2017-Mar-16 09:33N 39°16' W 076°35'0 0.0
2017-Mar-16 08:30N 39°16' W 076°35'0 0.0
2017-Mar-16 07:33N 39°16' W 076°35'0 0.0
2017-Mar-16 06:33N 39°16' W 076°35'0 0.0
2017-Mar-16 05:30N 39°16' W 076°35'0 0.0
2017-Mar-16 04:33N 39°16' W 076°35'0 0.0
2017-Mar-16 03:28N 39°16' W 076°35'0 0.0
2017-Mar-16 02:33N 39°16' W 076°35'0 0.0
2017-Mar-16 01:33N 39°16' W 076°35'0 0.0
2017-Mar-16 00:33N 39°16' W 076°35'0 0.0
2017-Mar-15 23:30N 39°16' W 076°35'0 0.0
2017-Mar-15 22:23N 39°16' W 076°35'0 0.0
2017-Mar-15 21:33N 39°16' W 076°35'0 0.0
2017-Mar-15 20:33N 39°16' W 076°35'0 0.0
2017-Mar-15 19:33N 39°16' W 076°35'2 1.8
2017-Mar-15 18:33N 39°15' W 076°33'1 0.8
2017-Mar-15 17:33N 39°15' W 076°32'0 0.4
2017-Mar-15 16:33N 39°14' W 076°32'1 1.2
2017-Mar-15 15:33N 39°14' W 076°33'  
Track history (hours):
 
Tides and Currents Weather Stations Pressure Air Temp Water Temp Dewpoint Dewpoint Depression Visibility Wind Speed Wind Dir Waves Ship Positions

Kaleen Mc Allister

Owner: MC ALLISTER TOWING & TRANSPORTATION INC, NEW YORK, NY. More information available from US FCC via Universal Licensing System and Coast Guard Vessel Documentation Center.

Last reported at 2017-Mar-25 14:34 UTC. Time now 2017-Mar-25 15:30 UTC.
Position N 39°16' W 076°35'.

Length 31 m; draft 4 m.

Type: Tug. MMSI: 366891960.

Date/timePositionNaut miles runAvg speedWind from/ knotsBaromVisibWave heightAir tempDewpointWater temp
2017-Mar-25 14:34N 39°16' W 076°35'0 0.1
2017-Mar-25 13:33N 39°16' W 076°35'0 0.0
2017-Mar-25 12:34N 39°16' W 076°35'0 0.0
2017-Mar-25 11:34N 39°16' W 076°35'0 0.0
2017-Mar-25 10:34N 39°16' W 076°35'0 0.0
2017-Mar-25 09:34N 39°16' W 076°35'0 0.0
2017-Mar-25 08:34N 39°16' W 076°35'0 0.0
2017-Mar-25 07:33N 39°16' W 076°35'0 0.0
2017-Mar-25 06:33N 39°16' W 076°35'0 0.0
2017-Mar-25 05:33N 39°16' W 076°35'0 0.0
2017-Mar-25 04:33N 39°16' W 076°35'1 0.8
2017-Mar-25 03:33N 39°15' W 076°34'3 2.7
2017-Mar-25 02:33N 39°13' W 076°35'2 1.9
2017-Mar-25 01:31N 39°14' W 076°33'2 2.1
2017-Mar-25 00:33N 39°16' W 076°35'0 0.0
2017-Mar-24 23:33N 39°16' W 076°35'0 0.0
2017-Mar-24 22:33N 39°16' W 076°35'5 4.8
2017-Mar-24 21:33N 39°13' W 076°30'2 1.5
2017-Mar-24 20:33N 39°12' W 076°29'3 3.5
2017-Mar-24 19:33N 39°14' W 076°33'3 2.6
2017-Mar-24 18:34N 39°16' W 076°35'0 0.0
2017-Mar-24 17:33N 39°16' W 076°35'0 0.0
2017-Mar-24 16:34N 39°16' W 076°35'0 0.0
2017-Mar-24 15:34N 39°16' W 076°35'0 0.0
2017-Mar-24 14:29N 39°16' W 076°35'0 0.0
2017-Mar-24 13:31N 39°16' W 076°35'0 0.0
2017-Mar-24 12:33N 39°16' W 076°35'0 0.0
2017-Mar-24 11:34N 39°16' W 076°35'0 0.0
2017-Mar-24 10:32N 39°16' W 076°35'2 1.3
2017-Mar-24 09:09N 39°15' W 076°33'1 1.5
2017-Mar-24 08:33N 39°15' W 076°35'1 1.1
2017-Mar-24 07:33N 39°16' W 076°35'0 0.0
2017-Mar-24 06:34N 39°16' W 076°35'0 0.0
2017-Mar-24 05:33N 39°16' W 076°35'0 0.0
2017-Mar-24 04:33N 39°16' W 076°35'0 0.1
2017-Mar-24 03:34N 39°16' W 076°35'2 1.5
2017-Mar-24 02:31N 39°15' W 076°34'2 1.6
2017-Mar-24 01:34N 39°16' W 076°35'0 0.1
2017-Mar-24 00:33N 39°16' W 076°35'0 0.0
2017-Mar-23 23:07N 39°16' W 076°35'0 0.0
2017-Mar-23 22:33N 39°16' W 076°35'0 0.0
2017-Mar-23 21:33N 39°16' W 076°35'0 0.0
2017-Mar-23 20:33N 39°16' W 076°35'0 0.0
2017-Mar-23 19:28N 39°16' W 076°35'3 3.5
2017-Mar-23 18:33N 39°13' W 076°35'2 1.9
2017-Mar-23 17:33N 39°14' W 076°33'2 2.0
2017-Mar-23 16:29N 39°16' W 076°35'0 0.0
2017-Mar-23 15:31N 39°16' W 076°35'0 0.0
2017-Mar-23 14:34N 39°16' W 076°35'0 0.0
2017-Mar-23 13:33N 39°16' W 076°35'0 0.0
2017-Mar-23 12:26N 39°16' W 076°35'0 0.0
2017-Mar-23 11:33N 39°16' W 076°35'2 0.5
2017-Mar-23 08:33N 39°15' W 076°34'2 1.5
2017-Mar-23 07:33N 39°16' W 076°35'0 0.0
2017-Mar-23 06:31N 39°16' W 076°35'0 0.0
2017-Mar-23 05:30N 39°16' W 076°35'0 0.0
2017-Mar-23 04:33N 39°16' W 076°35'2 1.5
2017-Mar-23 03:31N 39°15' W 076°33'2 1.7
2017-Mar-23 02:33N 39°16' W 076°35'3 0.3
2017-Mar-22 18:27N 39°14' W 076°34'2 2.3
2017-Mar-22 17:28N 39°15' W 076°32'0 0.1
2017-Mar-22 16:32N 39°15' W 076°32'1 1.2
2017-Mar-22 15:33N 39°14' W 076°33'2 1.5
2017-Mar-22 14:06N 39°16' W 076°35'0 0.0
2017-Mar-22 12:24N 39°16' W 076°35'0 0.0
2017-Mar-22 11:32N 39°16' W 076°35'0 0.0
2017-Mar-22 10:29N 39°16' W 076°35'0 0.0
2017-Mar-22 08:32N 39°16' W 076°35'0 0.0
2017-Mar-22 07:34N 39°16' W 076°35'0 0.0
2017-Mar-22 06:34N 39°16' W 076°35'0 0.0
2017-Mar-22 05:34N 39°16' W 076°35'0 0.0
2017-Mar-22 04:31N 39°16' W 076°35'1 1.0
2017-Mar-22 03:29N 39°15' W 076°35'1 1.1
2017-Mar-22 02:34N 39°16' W 076°35'0 0.1
2017-Mar-22 01:29N 39°16' W 076°35'0 0.0
2017-Mar-22 00:34N 39°16' W 076°35'0 0.3
2017-Mar-21 23:33N 39°16' W 076°35'2 2.1
2017-Mar-21 22:33N 39°15' W 076°32'1 0.9
2017-Mar-21 21:25N 39°15' W 076°34'3 2.9
2017-Mar-21 20:32N 39°13' W 076°32'0 0.0
2017-Mar-21 19:25N 39°13' W 076°32'2 2.1
2017-Mar-21 18:28N 39°13' W 076°35'1 0.7
2017-Mar-21 17:31N 39°13' W 076°34'2 1.7
2017-Mar-21 16:32N 39°15' W 076°34'1 1.4
2017-Mar-21 15:30N 39°16' W 076°35'0 0.0
2017-Mar-21 14:33N 39°16' W 076°35'0 0.0
2017-Mar-21 13:31N 39°16' W 076°35'0 0.0
2017-Mar-21 12:33N 39°16' W 076°35'0 0.0
2017-Mar-21 11:31N 39°16' W 076°35'0 0.0
2017-Mar-21 10:16N 39°16' W 076°35'0 0.0
2017-Mar-21 09:33N 39°16' W 076°35'0 0.0
2017-Mar-21 08:31N 39°16' W 076°35'0 0.0
2017-Mar-21 07:28N 39°16' W 076°35'0 0.0
2017-Mar-21 06:31N 39°16' W 076°35'0 0.0
2017-Mar-21 05:26N 39°16' W 076°35'1 0.8
2017-Mar-21 04:28N 39°15' W 076°35'3 2.9
2017-Mar-21 03:33N 39°15' W 076°31'3 2.9
2017-Mar-21 02:29N 39°16' W 076°35'0 0.0
2017-Mar-21 01:30N 39°16' W 076°35'0 0.0
2017-Mar-21 00:29N 39°16' W 076°35'0 0.0
2017-Mar-20 23:31N 39°16' W 076°35'0 0.0
2017-Mar-20 22:33N 39°16' W 076°35'0 0.0
2017-Mar-20 21:34N 39°16' W 076°35'0 0.0
2017-Mar-20 20:22N 39°16' W 076°35'0 0.0
2017-Mar-20 19:28N 39°16' W 076°35'0 0.0
2017-Mar-20 18:34N 39°16' W 076°35'0 0.0
2017-Mar-20 17:33N 39°16' W 076°35'0 0.0
2017-Mar-20 16:26N 39°16' W 076°35'0 0.0
2017-Mar-20 15:16N 39°16' W 076°35'0 0.0
2017-Mar-20 14:30N 39°16' W 076°35'2 1.4
2017-Mar-20 13:17N 39°15' W 076°33'1 0.9
2017-Mar-20 12:33N 39°15' W 076°34'2 1.6
2017-Mar-20 11:32N 39°15' W 076°32'0 0.0
2017-Mar-20 10:29N 39°15' W 076°32'0 0.0
2017-Mar-20 09:33N 39°15' W 076°32'0 0.4
2017-Mar-20 08:32N 39°15' W 076°33'0 0.1
2017-Mar-20 05:29N 39°15' W 076°32'1 0.6
2017-Mar-20 04:33N 39°15' W 076°32'2 1.7
2017-Mar-20 03:32N 39°15' W 076°34'0 0.1
2017-Mar-20 01:32N 39°15' W 076°35'0 0.5
2017-Mar-20 00:32N 39°15' W 076°34'1 1.2
2017-Mar-19 23:31N 39°14' W 076°33'2 2.3
2017-Mar-19 22:33N 39°16' W 076°35'0 0.0
2017-Mar-19 21:31N 39°16' W 076°35'0 0.0
2017-Mar-19 19:28N 39°16' W 076°35'0 0.0
2017-Mar-19 18:23N 39°16' W 076°35'0 0.0
2017-Mar-19 17:33N 39°16' W 076°35'0 0.0
2017-Mar-19 16:25N 39°16' W 076°35'2 2.3
2017-Mar-19 15:20N 39°14' W 076°33'2 2.9
2017-Mar-19 14:29N 39°16' W 076°35'0 0.0
2017-Mar-19 06:26N 39°16' W 076°35'0 0.0
2017-Mar-19 05:30N 39°16' W 076°35'0 0.0
2017-Mar-19 04:30N 39°16' W 076°35'0 0.0
2017-Mar-19 03:25N 39°16' W 076°35'1 1.0
2017-Mar-19 02:24N 39°15' W 076°35'1 0.3
2017-Mar-18 22:32N 39°16' W 076°35'0 0.0
2017-Mar-18 21:33N 39°16' W 076°35'0 0.0
2017-Mar-18 19:05N 39°16' W 076°35'0 0.0
2017-Mar-18 17:29N 39°16' W 076°35'3 1.3
2017-Mar-18 15:17N 39°13' W 076°34'2 2.3
2017-Mar-18 14:30N 39°15' W 076°33'2 0.9
2017-Mar-18 12:07N 39°16' W 076°35'0 0.0
2017-Mar-18 11:19N 39°16' W 076°35'0 0.0
2017-Mar-18 10:29N 39°16' W 076°35'2 0.8
2017-Mar-18 08:11N 39°15' W 076°34'1 1.5
2017-Mar-18 07:32N 39°14' W 076°33'3 2.7
2017-Mar-18 06:33N 39°16' W 076°35'0 0.0
2017-Mar-18 05:27N 39°16' W 076°35'0 0.0
2017-Mar-18 04:33N 39°16' W 076°35'0 0.0
2017-Mar-18 03:33N 39°16' W 076°35'0 0.0
2017-Mar-18 02:30N 39°16' W 076°35'0 0.0
2017-Mar-18 01:33N 39°16' W 076°35'3 2.3
2017-Mar-18 00:26N 39°15' W 076°32'1 1.3
2017-Mar-17 23:31N 39°13' W 076°32'1 0.6
2017-Mar-17 22:27N 39°13' W 076°32'3 3.0
2017-Mar-17 21:32N 39°15' W 076°34'1 1.0
2017-Mar-17 20:30N 39°16' W 076°35'0 0.0
2017-Mar-17 19:33N 39°16' W 076°35'0 0.0
2017-Mar-17 18:20N 39°16' W 076°35'0 0.0
2017-Mar-17 17:32N 39°16' W 076°35'0 0.0
2017-Mar-17 16:30N 39°16' W 076°35'0 0.0
2017-Mar-17 15:30N 39°16' W 076°35'0 0.0
2017-Mar-17 14:30N 39°16' W 076°35'0 0.0
2017-Mar-17 13:33N 39°16' W 076°35'0 0.0
2017-Mar-17 12:33N 39°16' W 076°35'1 1.1
2017-Mar-17 11:33N 39°15' W 076°35'1 0.6
2017-Mar-17 10:31N 39°15' W 076°34'0 0.3
2017-Mar-17 09:33N 39°15' W 076°34'1 1.1
2017-Mar-17 08:30N 39°16' W 076°35'0 0.0
2017-Mar-17 07:30N 39°16' W 076°35'0 0.0
2017-Mar-17 06:32N 39°16' W 076°35'0 0.2
2017-Mar-17 05:30N 39°16' W 076°35'0 0.2
2017-Mar-17 04:30N 39°16' W 076°35'0 0.0
2017-Mar-17 03:30N 39°16' W 076°35'0 0.3
2017-Mar-17 02:34N 39°16' W 076°35'0 0.3
2017-Mar-17 01:30N 39°16' W 076°35'0 0.0
2017-Mar-17 00:30N 39°16' W 076°35'0 0.0
2017-Mar-16 23:30N 39°16' W 076°35'0 0.0
2017-Mar-16 21:25N 39°16' W 076°35'0 0.0
2017-Mar-16 20:20N 39°16' W 076°35'0 0.0
2017-Mar-16 19:30N 39°16' W 076°35'3 3.3
2017-Mar-16 18:30N 39°13' W 076°35'2 1.9
2017-Mar-16 17:33N 39°14' W 076°33'2 2.1
2017-Mar-16 16:30N 39°16' W 076°35'0 0.0
2017-Mar-16 15:30N 39°16' W 076°35'0 0.0
2017-Mar-16 14:30N 39°16' W 076°35'0 0.0
2017-Mar-16 13:32N 39°16' W 076°35'0 0.0
2017-Mar-16 12:20N 39°16' W 076°35'0 0.0
2017-Mar-16 11:30N 39°16' W 076°35'0 0.0
2017-Mar-16 10:33N 39°16' W 076°35'0 0.0
2017-Mar-16 09:33N 39°16' W 076°35'0 0.0
2017-Mar-16 08:30N 39°16' W 076°35'0 0.0
2017-Mar-16 07:33N 39°16' W 076°35'0 0.0
2017-Mar-16 06:33N 39°16' W 076°35'0 0.0
2017-Mar-16 05:30N 39°16' W 076°35'0 0.0
2017-Mar-16 04:33N 39°16' W 076°35'0 0.0
2017-Mar-16 03:28N 39°16' W 076°35'0 0.0
2017-Mar-16 02:33N 39°16' W 076°35'0 0.0
2017-Mar-16 01:33N 39°16' W 076°35'0 0.0
2017-Mar-16 00:33N 39°16' W 076°35'0 0.0
2017-Mar-15 23:30N 39°16' W 076°35'0 0.0
2017-Mar-15 22:23N 39°16' W 076°35'0 0.0
2017-Mar-15 21:33N 39°16' W 076°35'0 0.0
2017-Mar-15 20:33N 39°16' W 076°35'0 0.0
2017-Mar-15 19:33N 39°16' W 076°35'2 1.8
2017-Mar-15 18:33N 39°15' W 076°33'1 0.8
2017-Mar-15 17:33N 39°15' W 076°32'0 0.4
2017-Mar-15 16:33N 39°14' W 076°32'1 1.2
2017-Mar-15 15:33N 39°14' W 076°33'  

Dump ship's entire track history